Praslin, Seychelles

1:31 PM SCT on August 28, 2014 (GMT +0400)
Seychelles International | Change Station
CLOSE
Current Station
Airport
Location: Seychelles,
Elevation: 10 ft
Nearby Weather Stations

Elev 10 ft 4.67 °S, 55.52 °E | Updated 31 minutes ago

Light Rain Showers
Light Showers Rain
81 °F
Feels Like 86 °F
N
12
Wind Variable Wind from ESE

Today
High -- | Low -- °F
--% Chance of Precip.
Yesterday
High -- | Low -- °F
Precip. -- in
6:18 AM 6:18 PM
Waxing Crescent, 7% visible
Pressure 29.86 in
Visibility 5.0 miles
Clouds Few 800 ft
Mostly Cloudy 1600 ft
Heat Index 86 °F
Dew Point 75 °F
Humidity 84%
Rainfall 0.00 in
Snow Depth Not available.
UV 8 out of 12
Pollen Not available.
Air Quality Not available.
Flu Activity Not available.
METAR FSIA 280900Z 11010KT 8000 -SHRA FEW008 BKN016 27/24 Q1011 TEMPO 5000 -SHRA

More Conditions Fewer Conditions

Pressure 29.86 in
Visibility 5.0 miles
Clouds Few 800 ft
Mostly Cloudy 1600 ft
Heat Index 86 °F
Dew Point 75 °F
Humidity 84%
Rainfall 0.00 in
Snow Depth Not available.
UV 8 out of 12
Pollen Not available.
Air Quality Not available.
Flu Activity Not available.
METAR FSIA 280900Z 11010KT 8000 -SHRA FEW008 BKN016 27/24 Q1011 TEMPO 5000 -SHRA

More Conditions Fewer Conditions

10-Day Weather Forecast

Almanac

Astronomy

Aug. 28, 2014 Rise Set
Actual Time 6:18 AM SCT 6:18 PM SCT
Civil Twilight 5:57 AM SCT 6:39 PM SCT
Nautical Twilight 5:33 AM SCT 7:03 PM SCT
Astronomical Twilight 5:09 AM SCT 7:28 PM SCT
Moon 8:00 AM SCT 8:24 PM SCT
Length of Visible Light 12h 41m
Length of Day
11h 59m
Tomorrow will be 0m 16s longer.
Waxing Crescent, 7% of the Moon is Illuminated
Today
Waxing Crescent
Sep 2
First Quarter
Sep 8
Full
Sep 15
Last Quarter
Sep 24
New

Yesterday's Extremes

Country Highs Country Lows

Community

WunderPhotos

Upload Photos

1,747,918 photos uploaded!

Nearby

Snow Depth

Not available.

Earthquake Activity

City Distance Mag. Time & Date
No recent earthquake activity has been reported nearby.
Minimum magnitude displayed is 2.5.

Coastal Water Temperatures

Place Temperature
No Stations Reporting

Nearby Weather Stations